createdAt,value
2023-04-23T00:02:34.190Z,99898.06
2023-04-23T00:05:38.628Z,99925.53
2023-04-23T00:08:41.940Z,99924.69
2023-04-23T00:11:44.857Z,99910.28
2023-04-23T00:14:47.486Z,99914.81
2023-04-23T00:17:49.949Z,99911.91
2023-04-23T00:20:54.653Z,99922.13
2023-04-23T00:23:57.007Z,99894.47
2023-04-23T00:27:00.042Z,99909.88
2023-04-23T00:30:04.339Z,99897.44
2023-04-23T00:33:06.671Z,99902.22
2023-04-23T00:36:09.097Z,99907.09
2023-04-23T00:39:11.794Z,99895.66
2023-04-23T00:42:14.285Z,99870.31
2023-04-23T00:45:18.326Z,99882.09
2023-04-23T00:48:21.462Z,99903.09
2023-04-23T00:51:24.672Z,99901.47
2023-04-23T00:54:27.828Z,99907.38
2023-04-23T00:57:30.596Z,99909.91
2023-04-23T01:00:35.781Z,99890.06
2023-04-23T01:03:39.582Z,99878.97
2023-04-23T01:06:42.929Z,99902.63
2023-04-23T01:09:46.678Z,99882.91
2023-04-23T01:12:49.798Z,99885.38
2023-04-23T01:15:52.509Z,99890.94
2023-04-23T01:18:56.973Z,99898.59
2023-04-23T01:22:01.344Z,99889.34
2023-04-23T01:25:04.527Z,99908.25
2023-04-23T01:28:07.064Z,99898.44
2023-04-23T01:31:09.800Z,99871.94
2023-04-23T01:34:13.176Z,99897.97
2023-04-23T01:37:16.181Z,99882.13
2023-04-23T01:40:19.935Z,99864.84
2023-04-23T01:43:23.607Z,99901.84
2023-04-23T01:46:26.291Z,99867.53
2023-04-23T01:49:28.652Z,99895.94
2023-04-23T01:52:31.138Z,99869.03
2023-04-23T01:55:34.834Z,99870.69
2023-04-23T01:58:37.136Z,99875.19
2023-04-23T02:01:44.477Z,99875.03
2023-04-23T02:04:48.813Z,99882.94
2023-04-23T02:07:51.940Z,99856.31
2023-04-23T02:10:54.292Z,99882.81
2023-04-23T02:13:56.640Z,99852.38
2023-04-23T02:16:58.978Z,99886.53
2023-04-23T02:20:02.396Z,99862.81
2023-04-23T02:23:04.892Z,99867.19
2023-04-23T02:26:07.950Z,99876.00
2023-04-23T02:29:10.637Z,99876.94
2023-04-23T02:32:12.952Z,99870.81
2023-04-23T02:35:15.747Z,99867.03
2023-04-23T02:38:18.057Z,99884.84
2023-04-23T02:41:20.375Z,99883.13
2023-04-23T02:44:22.744Z,99854.28
2023-04-23T02:47:25.030Z,99878.16
2023-04-23T02:50:27.485Z,99881.50
2023-04-23T02:53:29.853Z,99875.22
2023-04-23T02:56:32.257Z,99858.75
2023-04-23T02:59:34.637Z,99863.97
2023-04-23T03:02:37.339Z,99841.31
2023-04-23T03:05:39.882Z,99872.47
2023-04-23T03:08:42.262Z,99839.22
2023-04-23T03:11:44.619Z,99862.72
2023-04-23T03:14:48.975Z,99854.72
2023-04-23T03:17:53.972Z,99849.63
2023-04-23T03:20:56.686Z,99875.34
2023-04-23T03:23:59.199Z,99865.28
2023-04-23T03:27:01.498Z,99856.03
2023-04-23T03:30:04.289Z,99863.88
2023-04-23T03:33:07.516Z,99850.91
2023-04-23T03:36:09.918Z,99855.09
2023-04-23T03:39:13.110Z,99871.22
2023-04-23T03:42:24.797Z,99843.41
2023-04-23T03:45:31.083Z,99862.16
2023-04-23T03:48:33.703Z,99873.28
2023-04-23T03:51:39.790Z,99872.09
2023-04-23T03:54:44.054Z,99876.66
2023-04-23T03:57:49.667Z,99872.25
2023-04-23T04:00:58.402Z,99884.84
2023-04-23T04:04:01.099Z,99875.59
2023-04-23T04:07:03.646Z,99877.69
2023-04-23T04:10:06.698Z,99869.22
2023-04-23T04:13:08.972Z,99877.13
2023-04-23T04:16:11.366Z,99891.00
2023-04-23T04:19:13.768Z,99869.00
2023-04-23T04:22:16.312Z,99869.47
2023-04-23T04:25:18.936Z,99905.28
2023-04-23T04:28:21.296Z,99885.44
2023-04-23T04:31:23.650Z,99883.50
2023-04-23T04:34:27.861Z,99884.63
2023-04-23T04:37:30.598Z,99882.19
2023-04-23T04:40:34.524Z,99899.28
2023-04-23T04:43:37.747Z,99882.16
2023-04-23T04:46:40.815Z,99909.28
2023-04-23T04:49:43.201Z,99870.28
2023-04-23T04:52:45.699Z,99905.97
2023-04-23T04:55:48.024Z,99904.53
2023-04-23T04:58:50.394Z,99892.69
2023-04-23T05:01:52.860Z,99906.34
2023-04-23T05:04:55.207Z,99875.19
2023-04-23T05:07:59.443Z,99907.00
2023-04-23T05:11:02.326Z,99908.78
2023-04-23T05:14:04.726Z,99891.31
2023-04-23T05:17:07.119Z,99874.84
2023-04-23T05:20:13.935Z,99885.44
2023-04-23T05:23:16.261Z,99893.69
2023-04-23T05:26:18.656Z,99900.66
2023-04-23T05:29:21.032Z,99896.06
2023-04-23T05:32:23.704Z,99910.78
2023-04-23T05:35:25.979Z,99924.75
2023-04-23T05:38:28.327Z,99906.63
2023-04-23T05:41:30.714Z,99910.94
2023-04-23T05:44:33.011Z,99894.03
2023-04-23T05:47:35.318Z,99918.03
2023-04-23T05:50:37.724Z,99894.44
2023-04-23T05:53:40.045Z,99908.50
2023-04-23T05:56:42.265Z,99893.59
2023-04-23T05:59:44.555Z,99901.06
2023-04-23T06:02:48.044Z,99898.03
2023-04-23T06:05:50.736Z,99895.50
2023-04-23T06:08:53.070Z,99900.13
2023-04-23T06:11:55.591Z,99921.50
2023-04-23T06:14:58.092Z,99913.97
2023-04-23T06:18:00.959Z,99898.34
2023-04-23T06:21:04.472Z,99888.09
2023-04-23T06:24:08.204Z,99915.41
2023-04-23T06:27:10.877Z,99906.81
2023-04-23T06:30:18.180Z,99917.19
2023-04-23T06:33:20.894Z,99915.44
2023-04-23T06:36:23.193Z,99893.47
2023-04-23T06:39:25.576Z,99910.78
2023-04-23T06:42:27.900Z,99915.81
2023-04-23T06:45:53.347Z,99906.91
2023-04-23T06:48:55.782Z,99912.31
2023-04-23T06:51:58.193Z,99920.63
2023-04-23T06:55:00.503Z,99893.78
2023-04-23T06:58:03.577Z,99914.41
2023-04-23T07:01:07.622Z,99908.16
2023-04-23T07:04:11.228Z,99906.41
2023-04-23T07:07:13.591Z,99895.44
2023-04-23T07:10:17.581Z,99898.69
2023-04-23T07:13:20.492Z,99897.34
2023-04-23T07:16:23.940Z,99883.72
2023-04-23T07:19:27.493Z,99885.00
2023-04-23T07:22:30.516Z,99905.13
2023-04-23T07:25:32.891Z,99893.34
2023-04-23T07:28:35.378Z,99902.97
2023-04-23T07:31:39.503Z,99899.50
2023-04-23T07:34:42.078Z,99895.53
2023-04-23T07:37:44.933Z,99884.63
2023-04-23T07:40:47.501Z,99882.50
2023-04-23T07:43:49.918Z,99878.66
2023-04-23T07:46:52.637Z,99886.34
2023-04-23T07:49:54.972Z,99886.81
2023-04-23T07:52:57.327Z,99872.94
2023-04-23T07:56:00.620Z,99875.22
2023-04-23T07:59:05.433Z,99870.66
2023-04-23T08:02:07.864Z,99885.91
2023-04-23T08:05:10.296Z,99889.44
2023-04-23T08:08:13.155Z,99881.13
2023-04-23T08:11:15.685Z,99903.88
2023-04-23T08:14:18.766Z,99876.91
2023-04-23T08:17:21.149Z,99873.16
2023-04-23T08:20:24.113Z,99894.44
2023-04-23T08:23:26.418Z,99886.56
2023-04-23T08:26:28.817Z,99889.72
2023-04-23T08:29:31.163Z,99885.84
2023-04-23T08:32:33.831Z,99879.22
2023-04-23T08:35:37.088Z,99884.56
2023-04-23T08:38:39.380Z,99862.91
2023-04-23T08:41:43.300Z,99882.06
2023-04-23T08:44:48.512Z,99855.69
2023-04-23T08:47:50.964Z,99850.66
2023-04-23T08:50:53.273Z,99861.38
2023-04-23T08:53:58.624Z,99866.78
2023-04-23T08:57:02.077Z,99870.13
2023-04-23T09:00:06.624Z,99869.72
2023-04-23T09:03:09.242Z,99859.47
2023-04-23T09:06:12.187Z,99858.84
2023-04-23T09:09:16.245Z,99854.56
2023-04-23T09:12:18.616Z,99844.59
2023-04-23T09:15:21.100Z,99858.41
2023-04-23T09:18:23.716Z,99829.31
2023-04-23T09:21:26.452Z,99824.66
2023-04-23T09:24:28.728Z,99831.28
2023-04-23T09:27:31.292Z,99838.66
2023-04-23T09:30:39.491Z,99836.50
2023-04-23T09:33:41.847Z,99831.06
2023-04-23T09:36:45.408Z,99844.31
2023-04-23T09:39:47.800Z,99817.47
2023-04-23T09:42:55.233Z,99833.44
2023-04-23T09:45:57.726Z,99825.44
2023-04-23T09:49:02.907Z,99818.13
2023-04-23T09:52:07.054Z,99815.13
2023-04-23T09:55:11.120Z,99827.22
2023-04-23T09:58:15.744Z,99829.78
2023-04-23T10:01:18.696Z,99804.72
2023-04-23T10:04:25.637Z,99816.16
2023-04-23T10:07:29.455Z,99817.56
2023-04-23T10:10:31.803Z,99790.41
2023-04-23T10:13:36.413Z,99802.28
2023-04-23T10:16:48.625Z,99806.34
2023-04-23T10:19:52.426Z,99795.28
2023-04-23T10:22:56.571Z,99783.75
2023-04-23T10:26:01.051Z,99795.59
2023-04-23T10:29:05.027Z,99792.97
2023-04-23T10:32:07.680Z,99781.94
2023-04-23T10:35:11.110Z,99784.06
2023-04-23T10:38:14.099Z,99771.69
2023-04-23T10:41:20.573Z,99773.13
2023-04-23T10:44:45.097Z,99765.47
2023-04-23T10:47:46.811Z,99766.50
2023-04-23T10:51:09.639Z,99772.94
2023-04-23T10:54:20.524Z,99778.97
2023-04-23T10:57:22.926Z,99759.94
2023-04-23T11:00:26.524Z,99757.22
2023-04-23T11:03:44.376Z,99784.69
2023-04-23T11:06:48.084Z,99779.09
2023-04-23T11:09:50.437Z,99770.75
2023-04-23T11:12:53.043Z,99769.72
2023-04-23T11:16:35.743Z,99749.56
2023-04-23T11:19:38.997Z,99746.84
2023-04-23T11:22:46.232Z,99759.50
2023-04-23T11:25:48.595Z,99751.66
2023-04-23T11:28:52.105Z,99760.63
2023-04-23T11:35:05.069Z,99743.44
2023-04-23T11:38:12.436Z,99754.19
2023-04-23T11:41:15.987Z,99749.97
2023-04-23T11:44:20.537Z,99748.28
2023-04-23T11:47:26.298Z,99749.13
2023-04-23T11:50:30.706Z,99735.03
2023-04-23T11:53:33.261Z,99748.06
2023-04-23T11:56:35.712Z,99732.72
2023-04-23T11:59:38.113Z,99738.81
2023-04-23T12:02:52.139Z,99733.44
2023-04-23T12:05:56.233Z,99731.75
2023-04-23T12:08:58.851Z,99733.47
2023-04-23T12:12:03.556Z,99713.47
2023-04-23T12:15:07.783Z,99718.03
2023-04-23T12:18:11.116Z,99692.28
2023-04-23T12:21:14.097Z,99697.69
2023-04-23T12:24:18.439Z,99705.84
2023-04-23T12:27:22.419Z,99701.84
2023-04-23T12:30:28.928Z,99688.44
2023-04-23T12:33:31.533Z,99690.56
2023-04-23T12:36:37.062Z,99693.50
2023-04-23T12:39:39.671Z,99678.28
2023-04-23T12:42:42.331Z,99681.34
2023-04-23T12:45:45.819Z,99691.31
2023-04-23T12:48:48.151Z,99662.63
2023-04-23T12:51:50.777Z,99683.31
2023-04-23T12:54:56.381Z,99687.75
2023-04-23T12:57:59.955Z,99674.47
2023-04-23T13:01:02.334Z,99658.38
2023-04-23T13:04:04.698Z,99629.69
2023-04-23T13:07:12.222Z,99669.22
2023-04-23T13:10:17.131Z,99652.31
2023-04-23T13:13:19.475Z,99655.44
2023-04-23T13:16:21.874Z,99651.41
2023-04-23T13:19:24.800Z,99641.78
2023-04-23T13:22:29.237Z,99627.28
2023-04-23T13:25:34.480Z,99641.44
2023-04-23T13:28:36.884Z,99638.47
2023-04-23T13:31:39.837Z,99627.06
2023-04-23T13:34:42.506Z,99614.72
2023-04-23T13:37:45.123Z,99614.50
2023-04-23T13:40:47.365Z,99609.03
2023-04-23T13:43:49.779Z,99614.00
2023-04-23T13:46:52.188Z,99601.00
2023-04-23T13:49:54.505Z,99609.03
2023-04-23T13:52:56.827Z,99603.50
2023-04-23T13:55:59.707Z,99619.34
2023-04-23T13:59:18.784Z,99585.63
2023-04-23T14:02:24.108Z,99594.38
2023-04-23T14:05:26.549Z,99590.66
2023-04-23T14:08:28.886Z,99591.75
2023-04-23T14:11:31.189Z,99581.03
2023-04-23T14:14:33.553Z,99593.03
2023-04-23T14:17:37.300Z,99566.00
2023-04-23T14:20:39.709Z,99586.31
2023-04-23T14:23:50.719Z,99581.53
2023-04-23T14:26:53.200Z,99574.19
2023-04-23T14:29:55.597Z,99581.75
2023-04-23T14:32:57.975Z,99561.31
2023-04-23T14:36:00.332Z,99579.72
2023-04-23T14:39:05.286Z,99582.72
2023-04-23T14:42:07.658Z,99571.53
2023-04-23T14:45:10.254Z,99556.69
2023-04-23T14:48:12.514Z,99561.94
2023-04-23T14:51:14.887Z,99558.44
2023-04-23T14:54:17.707Z,99563.69
2023-04-23T14:57:20.018Z,99562.03
2023-04-23T15:00:22.487Z,99565.63
2023-04-23T15:03:26.831Z,99552.19
2023-04-23T15:06:29.308Z,99563.88
2023-04-23T15:09:31.600Z,99558.72
2023-04-23T15:12:43.420Z,99551.50
2023-04-23T15:15:56.770Z,99562.91
2023-04-23T15:19:03.467Z,99520.53
2023-04-23T15:22:05.844Z,99563.75
2023-04-23T15:25:08.196Z,99557.69
2023-04-23T15:28:10.648Z,99547.47
2023-04-23T15:31:13.058Z,99549.75
2023-04-23T15:34:15.465Z,99561.81
2023-04-23T15:37:20.055Z,99551.28
2023-04-23T15:40:22.615Z,99546.00
2023-04-23T15:43:24.957Z,99538.47
2023-04-23T15:46:27.252Z,99539.47
2023-04-23T15:49:29.820Z,99534.09
2023-04-23T15:52:32.269Z,99524.31
2023-04-23T15:55:34.683Z,99520.03
2023-04-23T15:58:37.056Z,99512.59
2023-04-23T16:01:39.638Z,99529.06
2023-04-23T16:04:42.336Z,99536.06
2023-04-23T16:07:44.853Z,99531.75
2023-04-23T16:10:47.167Z,99521.81
2023-04-23T16:13:49.625Z,99516.25
2023-04-23T16:16:51.950Z,99522.13
2023-04-23T16:19:54.403Z,99517.81
2023-04-23T16:22:56.920Z,99519.06
2023-04-23T16:26:01.543Z,99516.66
2023-04-23T16:29:16.580Z,99533.28
2023-04-23T16:32:23.526Z,99522.56
2023-04-23T16:35:25.902Z,99517.69
2023-04-23T16:38:28.191Z,99503.88
2023-04-23T16:41:31.558Z,99488.31
2023-04-23T16:44:33.879Z,99498.38
2023-04-23T16:47:36.339Z,99515.63
2023-04-23T16:50:39.029Z,99509.28
2023-04-23T16:53:41.372Z,99513.22
2023-04-23T16:56:45.496Z,99515.84
2023-04-23T16:59:47.833Z,99510.53
2023-04-23T17:02:50.449Z,99502.66
2023-04-23T17:06:19.537Z,99504.66
2023-04-23T17:09:22.063Z,99502.38
2023-04-23T17:12:24.665Z,99497.47
2023-04-23T17:15:27.209Z,99495.50
2023-04-23T17:18:29.891Z,99492.28
2023-04-23T17:21:32.514Z,99495.09
2023-04-23T17:24:36.359Z,99510.03
2023-04-23T17:27:39.406Z,99500.16
2023-04-23T17:30:41.851Z,99499.72
2023-04-23T17:33:45.594Z,99500.06
2023-04-23T17:36:48.616Z,99495.13
2023-04-23T17:39:51.130Z,99496.22
2023-04-23T17:42:53.581Z,99508.94
2023-04-23T17:45:55.925Z,99506.34
2023-04-23T17:48:58.438Z,99508.50
2023-04-23T17:52:00.985Z,99500.28
2023-04-23T17:55:03.759Z,99505.47
2023-04-23T17:58:06.708Z,99514.69
2023-04-23T18:01:10.108Z,99506.88
2023-04-23T18:04:13.472Z,99487.78
2023-04-23T18:07:17.575Z,99506.09
2023-04-23T18:10:20.037Z,99514.56
2023-04-23T18:13:22.566Z,99519.13
2023-04-23T18:16:25.297Z,99511.03
2023-04-23T18:19:27.893Z,99522.78
2023-04-23T18:22:30.175Z,99530.38
2023-04-23T18:25:32.842Z,99524.09
2023-04-23T18:28:37.154Z,99517.53
2023-04-23T18:31:39.447Z,99535.41
2023-04-23T18:34:41.915Z,99535.41
2023-04-23T18:37:49.381Z,99552.41
2023-04-23T18:40:51.934Z,99547.00
2023-04-23T18:43:54.358Z,99541.44
2023-04-23T18:46:56.766Z,99531.38
2023-04-23T18:50:09.275Z,99553.16
2023-04-23T18:53:11.876Z,99538.38
2023-04-23T18:56:15.027Z,99552.13
2023-04-23T18:59:18.886Z,99546.78
2023-04-23T19:02:34.543Z,99554.75
2023-04-23T19:05:38.613Z,99562.59
2023-04-23T19:08:42.418Z,99558.97
2023-04-23T19:11:45.378Z,99558.25
2023-04-23T19:14:47.650Z,99555.97
2023-04-23T19:17:50.141Z,99551.88
2023-04-23T19:20:53.858Z,99554.91
2023-04-23T19:23:56.810Z,99555.22
2023-04-23T19:26:59.190Z,99551.81
2023-04-23T19:30:01.800Z,99551.25
2023-04-23T19:33:04.726Z,99550.00
2023-04-23T19:36:07.165Z,99558.06
2023-04-23T19:39:10.571Z,99528.88
2023-04-23T19:42:14.871Z,99556.78
2023-04-23T19:45:18.468Z,99550.16
2023-04-23T19:48:23.913Z,99533.25
2023-04-23T19:51:29.168Z,99543.19
2023-04-23T19:54:31.634Z,99552.91
2023-04-23T19:57:33.905Z,99541.41
2023-04-23T20:00:41.642Z,99532.06
2023-04-23T20:03:52.030Z,99511.66
2023-04-23T20:06:54.376Z,99532.91
2023-04-23T20:09:56.682Z,99539.53
2023-04-23T20:12:59.880Z,99534.50
2023-04-23T20:16:03.232Z,99535.09
2023-04-23T20:19:11.447Z,99522.53
2023-04-23T20:22:13.737Z,99516.41
2023-04-23T20:25:16.083Z,99519.53
2023-04-23T20:28:18.465Z,99498.66
2023-04-23T20:31:21.377Z,99511.28
2023-04-23T20:34:23.734Z,99509.41
2023-04-23T20:37:26.855Z,99505.94
2023-04-23T20:40:34.509Z,99516.16
2023-04-23T20:43:38.822Z,99516.16
2023-04-23T20:46:41.258Z,99508.09
2023-04-23T20:49:43.811Z,99510.22
2023-04-23T20:52:46.558Z,99513.00
2023-04-23T20:55:48.932Z,99506.72
2023-04-23T20:58:51.268Z,99515.03
2023-04-23T21:01:53.655Z,99497.06
2023-04-23T21:04:56.114Z,99512.91
2023-04-23T21:07:58.433Z,99512.97
2023-04-23T21:11:00.814Z,99518.09
2023-04-23T21:14:03.130Z,99494.44
2023-04-23T21:17:05.768Z,99505.25
2023-04-23T21:20:09.661Z,99507.03
2023-04-23T21:23:12.347Z,99496.31
2023-04-23T21:26:14.624Z,99463.09
2023-04-23T21:29:16.997Z,99500.94
2023-04-23T21:32:19.642Z,99490.25
2023-04-23T21:35:21.987Z,99486.69
2023-04-23T21:38:24.251Z,99490.50
2023-04-23T21:41:26.595Z,99478.63
2023-04-23T21:44:31.176Z,99477.59
2023-04-23T21:47:33.516Z,99459.72
2023-04-23T21:50:36.250Z,99465.22
2023-04-23T21:53:38.583Z,99462.59
2023-04-23T21:56:41.639Z,99480.34
2023-04-23T21:59:44.101Z,99465.91
2023-04-23T22:02:47.257Z,99462.25
2023-04-23T22:05:52.286Z,99449.94
2023-04-23T22:08:56.046Z,99449.09
2023-04-23T22:12:02.393Z,99457.94
2023-04-23T22:15:06.774Z,99454.22
2023-04-23T22:18:09.090Z,99446.69
2023-04-23T22:21:11.505Z,99432.50
2023-04-23T22:24:13.807Z,99449.97
2023-04-23T22:27:16.218Z,99441.31
2023-04-23T22:30:18.553Z,99434.03
2023-04-23T22:33:21.184Z,99434.28
2023-04-23T22:36:23.485Z,99430.00
2023-04-23T22:39:25.902Z,99439.94
2023-04-23T22:42:28.237Z,99429.94
2023-04-23T22:45:30.616Z,99423.81
2023-04-23T22:48:32.948Z,99419.25
2023-04-23T22:51:35.889Z,99407.97
2023-04-23T22:54:38.190Z,99414.97
2023-04-23T22:57:40.559Z,99402.41
2023-04-23T23:00:42.923Z,99397.81
2023-04-23T23:03:45.292Z,99403.19
2023-04-23T23:06:47.774Z,99405.78
2023-04-23T23:09:50.271Z,99409.03
2023-04-23T23:12:53.026Z,99389.72
2023-04-23T23:15:55.705Z,99382.78
2023-04-23T23:18:58.495Z,99391.41
2023-04-23T23:22:00.832Z,99370.97
2023-04-23T23:25:03.879Z,99376.47
2023-04-23T23:28:06.259Z,99374.28
2023-04-23T23:31:09.571Z,99378.03
2023-04-23T23:34:12.393Z,99375.09
2023-04-23T23:37:14.712Z,99369.47
2023-04-23T23:40:17.057Z,99366.22
2023-04-23T23:43:19.287Z,99356.03
2023-04-23T23:46:22.296Z,99370.22
2023-04-23T23:49:24.652Z,99355.72
2023-04-23T23:52:26.997Z,99350.09
2023-04-23T23:55:29.290Z,99364.94
2023-04-23T23:58:31.578Z,99358.81
